sensor_id;sensor_type;location;lat;lon;timestamp;P1;durP1;ratioP1;P2;durP2;ratioP2
45318;SDS011;31057;48.498;32.260;2023-04-06T00:00:47;48.97;;;28.73;;
45318;SDS011;31057;48.498;32.260;2023-04-06T00:02:50;45.80;;;29.92;;
45318;SDS011;31057;48.498;32.260;2023-04-06T00:04:53;50.22;;;30.52;;
45318;SDS011;31057;48.498;32.260;2023-04-06T00:06:55;50.25;;;30.27;;
45318;SDS011;31057;48.498;32.260;2023-04-06T00:08:57;47.13;;;29.77;;
45318;SDS011;31057;48.498;32.260;2023-04-06T00:11:00;45.03;;;30.25;;
45318;SDS011;31057;48.498;32.260;2023-04-06T00:13:02;47.67;;;29.67;;
45318;SDS011;31057;48.498;32.260;2023-04-06T00:19:09;43.50;;;26.75;;
45318;SDS011;31057;48.498;32.260;2023-04-06T00:21:11;41.70;;;25.08;;
45318;SDS011;31057;48.498;32.260;2023-04-06T00:23:14;40.00;;;26.15;;
45318;SDS011;31057;48.498;32.260;2023-04-06T00:25:16;39.97;;;24.98;;
45318;SDS011;31057;48.498;32.260;2023-04-06T00:27:18;40.65;;;26.42;;
45318;SDS011;31057;48.498;32.260;2023-04-06T00:29:20;37.40;;;23.80;;
45318;SDS011;31057;48.498;32.260;2023-04-06T00:31:22;39.08;;;25.60;;
45318;SDS011;31057;48.498;32.260;2023-04-06T00:33:24;36.28;;;25.85;;
45318;SDS011;31057;48.498;32.260;2023-04-06T00:35:26;41.13;;;27.35;;
45318;SDS011;31057;48.498;32.260;2023-04-06T00:37:28;39.67;;;27.48;;
45318;SDS011;31057;48.498;32.260;2023-04-06T00:39:30;45.45;;;29.08;;
45318;SDS011;31057;48.498;32.260;2023-04-06T00:41:32;45.05;;;28.45;;
45318;SDS011;31057;48.498;32.260;2023-04-06T00:43:34;45.33;;;28.58;;
45318;SDS011;31057;48.498;32.260;2023-04-06T00:45:37;44.33;;;29.02;;
45318;SDS011;31057;48.498;32.260;2023-04-06T00:47:40;40.90;;;27.17;;
45318;SDS011;31057;48.498;32.260;2023-04-06T00:51:44;47.17;;;28.10;;
45318;SDS011;31057;48.498;32.260;2023-04-06T00:55:48;43.05;;;28.02;;
45318;SDS011;31057;48.498;32.260;2023-04-06T00:59:52;45.77;;;29.13;;
45318;SDS011;31057;48.498;32.260;2023-04-06T01:01:55;48.38;;;30.00;;
45318;SDS011;31057;48.498;32.260;2023-04-06T01:05:59;39.55;;;26.55;;
45318;SDS011;31057;48.498;32.260;2023-04-06T01:08:01;37.17;;;21.95;;
45318;SDS011;31057;48.498;32.260;2023-04-06T01:10:03;29.70;;;21.15;;
45318;SDS011;31057;48.498;32.260;2023-04-06T01:12:05;32.05;;;19.05;;
45318;SDS011;31057;48.498;32.260;2023-04-06T01:14:07;30.10;;;17.55;;
45318;SDS011;31057;48.498;32.260;2023-04-06T01:16:10;22.00;;;16.27;;
45318;SDS011;31057;48.498;32.260;2023-04-06T01:20:14;21.92;;;15.32;;
45318;SDS011;31057;48.498;32.260;2023-04-06T01:22:16;20.00;;;14.93;;
45318;SDS011;31057;48.498;32.260;2023-04-06T01:24:19;22.38;;;15.30;;
45318;SDS011;31057;48.498;32.260;2023-04-06T01:26:21;20.20;;;14.20;;
45318;SDS011;31057;48.498;32.260;2023-04-06T01:30:25;23.70;;;13.77;;
45318;SDS011;31057;48.498;32.260;2023-04-06T01:32:27;17.42;;;12.82;;
45318;SDS011;31057;48.498;32.260;2023-04-06T01:36:31;20.88;;;13.32;;
45318;SDS011;31057;48.498;32.260;2023-04-06T01:38:34;20.60;;;13.30;;
45318;SDS011;31057;48.498;32.260;2023-04-06T01:42:38;17.00;;;10.87;;
45318;SDS011;31057;48.498;32.260;2023-04-06T01:46:42;15.82;;;11.77;;
45318;SDS011;31057;48.498;32.260;2023-04-06T01:48:44;18.80;;;12.25;;
45318;SDS011;31057;48.498;32.260;2023-04-06T01:50:46;17.88;;;13.30;;
45318;SDS011;31057;48.498;32.260;2023-04-06T01:52:48;16.98;;;12.30;;
45318;SDS011;31057;48.498;32.260;2023-04-06T01:54:51;18.27;;;13.10;;
45318;SDS011;31057;48.498;32.260;2023-04-06T01:56:53;23.15;;;12.82;;
45318;SDS011;31057;48.498;32.260;2023-04-06T02:00:57;21.13;;;12.88;;
45318;SDS011;31057;48.498;32.260;2023-04-06T02:02:59;19.23;;;12.93;;
45318;SDS011;31057;48.498;32.260;2023-04-06T02:05:01;18.35;;;12.05;;
45318;SDS011;31057;48.498;32.260;2023-04-06T02:07:04;15.82;;;11.98;;
45318;SDS011;31057;48.498;32.260;2023-04-06T02:09:06;20.00;;;13.55;;
45318;SDS011;31057;48.498;32.260;2023-04-06T02:11:08;20.88;;;13.43;;
45318;SDS011;31057;48.498;32.260;2023-04-06T02:13:10;17.10;;;13.32;;
45318;SDS011;31057;48.498;32.260;2023-04-06T02:15:12;21.52;;;12.85;;
45318;SDS011;31057;48.498;32.260;2023-04-06T02:17:14;17.98;;;12.63;;
45318;SDS011;31057;48.498;32.260;2023-04-06T02:21:18;15.97;;;11.70;;
45318;SDS011;31057;48.498;32.260;2023-04-06T02:23:21;16.83;;;11.07;;
45318;SDS011;31057;48.498;32.260;2023-04-06T02:25:23;16.88;;;11.68;;
45318;SDS011;31057;48.498;32.260;2023-04-06T02:27:25;14.40;;;10.43;;
45318;SDS011;31057;48.498;32.260;2023-04-06T02:29:27;13.20;;;9.98;;
45318;SDS011;31057;48.498;32.260;2023-04-06T02:31:30;12.40;;;9.25;;
45318;SDS011;31057;48.498;32.260;2023-04-06T02:33:32;14.30;;;8.90;;
45318;SDS011;31057;48.498;32.260;2023-04-06T02:35:34;13.25;;;8.32;;
45318;SDS011;31057;48.498;32.260;2023-04-06T02:37:36;10.48;;;8.15;;
45318;SDS011;31057;48.498;32.260;2023-04-06T02:39:38;13.35;;;7.70;;
45318;SDS011;31057;48.498;32.260;2023-04-06T02:41:40;10.20;;;6.82;;
45318;SDS011;31057;48.498;32.260;2023-04-06T02:43:42;9.27;;;7.20;;
45318;SDS011;31057;48.498;32.260;2023-04-06T02:45:44;9.77;;;7.72;;
45318;SDS011;31057;48.498;32.260;2023-04-06T02:47:47;9.60;;;7.05;;
45318;SDS011;31057;48.498;32.260;2023-04-06T02:49:49;11.95;;;7.80;;
45318;SDS011;31057;48.498;32.260;2023-04-06T02:51:51;8.95;;;7.13;;
45318;SDS011;31057;48.498;32.260;2023-04-06T02:53:53;9.85;;;7.55;;
45318;SDS011;31057;48.498;32.260;2023-04-06T02:55:54;11.02;;;8.63;;
45318;SDS011;31057;48.498;32.260;2023-04-06T02:57:57;12.80;;;8.10;;
45318;SDS011;31057;48.498;32.260;2023-04-06T02:59:59;11.82;;;8.68;;
45318;SDS011;31057;48.498;32.260;2023-04-06T03:04:03;15.50;;;9.75;;
45318;SDS011;31057;48.498;32.260;2023-04-06T03:08:06;15.05;;;10.50;;
45318;SDS011;31057;48.498;32.260;2023-04-06T03:10:08;17.50;;;11.88;;
45318;SDS011;31057;48.498;32.260;2023-04-06T03:12:11;17.35;;;12.57;;
45318;SDS011;31057;48.498;32.260;2023-04-06T03:14:13;15.15;;;11.00;;
45318;SDS011;31057;48.498;32.260;2023-04-06T03:18:26;15.95;;;12.15;;
45318;SDS011;31057;48.498;32.260;2023-04-06T03:20:28;19.88;;;12.73;;
45318;SDS011;31057;48.498;32.260;2023-04-06T03:22:30;18.70;;;12.07;;
45318;SDS011;31057;48.498;32.260;2023-04-06T03:24:32;20.08;;;14.30;;
45318;SDS011;31057;48.498;32.260;2023-04-06T03:26:34;19.33;;;14.32;;
45318;SDS011;31057;48.498;32.260;2023-04-06T03:28:35;20.27;;;14.55;;
45318;SDS011;31057;48.498;32.260;2023-04-06T03:32:39;20.93;;;15.30;;
45318;SDS011;31057;48.498;32.260;2023-04-06T03:34:41;21.27;;;16.25;;
45318;SDS011;31057;48.498;32.260;2023-04-06T03:36:43;28.75;;;17.95;;
45318;SDS011;31057;48.498;32.260;2023-04-06T03:38:46;29.10;;;19.33;;
45318;SDS011;31057;48.498;32.260;2023-04-06T03:40:50;28.17;;;19.13;;
45318;SDS011;31057;48.498;32.260;2023-04-06T03:42:52;33.33;;;21.60;;
45318;SDS011;31057;48.498;32.260;2023-04-06T03:44:54;31.05;;;19.85;;
45318;SDS011;31057;48.498;32.260;2023-04-06T03:48:58;22.33;;;14.27;;
45318;SDS011;31057;48.498;32.260;2023-04-06T03:51:00;16.92;;;12.05;;
45318;SDS011;31057;48.498;32.260;2023-04-06T03:53:02;18.63;;;11.95;;
45318;SDS011;31057;48.498;32.260;2023-04-06T03:55:04;26.27;;;14.43;;
45318;SDS011;31057;48.498;32.260;2023-04-06T03:57:07;15.23;;;9.55;;
45318;SDS011;31057;48.498;32.260;2023-04-06T03:59:08;15.90;;;10.68;;
45318;SDS011;31057;48.498;32.260;2023-04-06T04:01:11;18.60;;;10.57;;
45318;SDS011;31057;48.498;32.260;2023-04-06T04:03:13;16.23;;;9.57;;
45318;SDS011;31057;48.498;32.260;2023-04-06T04:05:15;17.13;;;10.75;;
45318;SDS011;31057;48.498;32.260;2023-04-06T04:07:18;17.83;;;10.20;;
45318;SDS011;31057;48.498;32.260;2023-04-06T04:09:20;16.52;;;9.90;;
45318;SDS011;31057;48.498;32.260;2023-04-06T04:11:21;15.02;;;9.85;;
45318;SDS011;31057;48.498;32.260;2023-04-06T04:13:23;14.95;;;9.23;;
45318;SDS011;31057;48.498;32.260;2023-04-06T04:17:28;11.57;;;7.47;;
45318;SDS011;31057;48.498;32.260;2023-04-06T04:19:30;13.50;;;7.70;;
45318;SDS011;31057;48.498;32.260;2023-04-06T04:21:32;10.90;;;7.10;;
45318;SDS011;31057;48.498;32.260;2023-04-06T04:23:34;10.80;;;7.80;;
45318;SDS011;31057;48.498;32.260;2023-04-06T04:25:37;12.38;;;8.25;;
45318;SDS011;31057;48.498;32.260;2023-04-06T04:27:39;10.40;;;8.18;;
45318;SDS011;31057;48.498;32.260;2023-04-06T04:29:41;9.60;;;7.55;;
45318;SDS011;31057;48.498;32.260;2023-04-06T04:31:45;14.68;;;8.45;;
45318;SDS011;31057;48.498;32.260;2023-04-06T04:33:47;11.65;;;7.38;;
45318;SDS011;31057;48.498;32.260;2023-04-06T04:35:48;10.95;;;8.15;;
45318;SDS011;31057;48.498;32.260;2023-04-06T04:37:51;13.63;;;7.05;;
45318;SDS011;31057;48.498;32.260;2023-04-06T04:39:53;11.40;;;7.18;;
45318;SDS011;31057;48.498;32.260;2023-04-06T04:41:55;9.77;;;6.93;;
45318;SDS011;31057;48.498;32.260;2023-04-06T04:43:57;9.40;;;5.22;;
45318;SDS011;31057;48.498;32.260;2023-04-06T04:45:59;9.48;;;5.78;;
45318;SDS011;31057;48.498;32.260;2023-04-06T04:48:01;5.80;;;4.85;;
45318;SDS011;31057;48.498;32.260;2023-04-06T04:52:05;8.55;;;4.93;;
45318;SDS011;31057;48.498;32.260;2023-04-06T04:54:07;7.40;;;4.85;;
45318;SDS011;31057;48.498;32.260;2023-04-06T04:58:11;7.50;;;5.65;;
45318;SDS011;31057;48.498;32.260;2023-04-06T05:00:18;8.50;;;5.68;;
45318;SDS011;31057;48.498;32.260;2023-04-06T05:02:21;12.65;;;6.70;;
45318;SDS011;31057;48.498;32.260;2023-04-06T05:04:23;12.38;;;5.90;;
45318;SDS011;31057;48.498;32.260;2023-04-06T05:06:25;9.23;;;5.63;;
45318;SDS011;31057;48.498;32.260;2023-04-06T05:08:27;7.57;;;5.05;;
45318;SDS011;31057;48.498;32.260;2023-04-06T05:10:29;6.32;;;5.30;;
45318;SDS011;31057;48.498;32.260;2023-04-06T05:12:31;8.13;;;5.40;;
45318;SDS011;31057;48.498;32.260;2023-04-06T05:16:35;9.25;;;4.43;;
45318;SDS011;31057;48.498;32.260;2023-04-06T05:18:37;6.65;;;4.30;;
45318;SDS011;31057;48.498;32.260;2023-04-06T05:20:39;7.03;;;3.95;;
45318;SDS011;31057;48.498;32.260;2023-04-06T05:22:41;8.10;;;4.20;;
45318;SDS011;31057;48.498;32.260;2023-04-06T05:24:43;5.68;;;4.45;;
45318;SDS011;31057;48.498;32.260;2023-04-06T05:28:47;8.07;;;5.55;;
45318;SDS011;31057;48.498;32.260;2023-04-06T05:30:49;7.63;;;5.63;;
45318;SDS011;31057;48.498;32.260;2023-04-06T05:32:51;10.45;;;6.82;;
45318;SDS011;31057;48.498;32.260;2023-04-06T05:34:53;11.55;;;6.55;;
45318;SDS011;31057;48.498;32.260;2023-04-06T05:38:57;11.57;;;8.07;;
45318;SDS011;31057;48.498;32.260;2023-04-06T05:41:00;14.35;;;8.40;;
45318;SDS011;31057;48.498;32.260;2023-04-06T05:43:02;14.48;;;11.02;;
45318;SDS011;31057;48.498;32.260;2023-04-06T05:45:04;13.30;;;7.07;;
45318;SDS011;31057;48.498;32.260;2023-04-06T05:47:07;7.80;;;5.40;;
45318;SDS011;31057;48.498;32.260;2023-04-06T05:49:09;7.22;;;4.13;;
45318;SDS011;31057;48.498;32.260;2023-04-06T05:51:12;6.38;;;4.15;;
45318;SDS011;31057;48.498;32.260;2023-04-06T05:53:14;6.60;;;4.13;;
45318;SDS011;31057;48.498;32.260;2023-04-06T05:55:16;5.07;;;2.38;;
45318;SDS011;31057;48.498;32.260;2023-04-06T05:57:18;5.00;;;2.72;;
45318;SDS011;31057;48.498;32.260;2023-04-06T05:59:20;4.20;;;3.13;;
45318;SDS011;31057;48.498;32.260;2023-04-06T06:03:24;4.82;;;2.78;;
45318;SDS011;31057;48.498;32.260;2023-04-06T06:05:26;2.50;;;1.77;;
45318;SDS011;31057;48.498;32.260;2023-04-06T06:09:29;4.25;;;1.67;;
45318;SDS011;31057;48.498;32.260;2023-04-06T06:13:34;5.45;;;4.22;;
45318;SDS011;31057;48.498;32.260;2023-04-06T06:15:36;4.88;;;2.97;;
45318;SDS011;31057;48.498;32.260;2023-04-06T06:17:38;6.75;;;3.53;;
45318;SDS011;31057;48.498;32.260;2023-04-06T06:21:42;5.93;;;3.35;;
45318;SDS011;31057;48.498;32.260;2023-04-06T06:23:44;4.35;;;3.13;;
45318;SDS011;31057;48.498;32.260;2023-04-06T06:27:47;3.42;;;2.33;;
45318;SDS011;31057;48.498;32.260;2023-04-06T06:29:49;8.30;;;2.83;;
45318;SDS011;31057;48.498;32.260;2023-04-06T06:33:53;5.18;;;2.80;;
45318;SDS011;31057;48.498;32.260;2023-04-06T06:35:55;7.95;;;2.83;;
45318;SDS011;31057;48.498;32.260;2023-04-06T06:39:59;4.55;;;2.10;;
45318;SDS011;31057;48.498;32.260;2023-04-06T06:42:01;3.67;;;2.03;;
45318;SDS011;31057;48.498;32.260;2023-04-06T06:46:05;3.15;;;2.42;;
45318;SDS011;31057;48.498;32.260;2023-04-06T06:48:07;3.00;;;1.88;;
45318;SDS011;31057;48.498;32.260;2023-04-06T06:50:09;2.28;;;2.00;;
45318;SDS011;31057;48.498;32.260;2023-04-06T06:52:11;1.73;;;1.38;;
45318;SDS011;31057;48.498;32.260;2023-04-06T06:54:13;5.63;;;2.22;;
45318;SDS011;31057;48.498;32.260;2023-04-06T06:56:15;4.63;;;2.03;;
45318;SDS011;31057;48.498;32.260;2023-04-06T07:00:20;3.40;;;1.73;;
45318;SDS011;31057;48.498;32.260;2023-04-06T07:04:24;5.18;;;2.35;;
45318;SDS011;31057;48.498;32.260;2023-04-06T07:06:29;7.13;;;3.28;;
45318;SDS011;31057;48.498;32.260;2023-04-06T07:08:31;2.75;;;2.08;;
45318;SDS011;31057;48.498;32.260;2023-04-06T07:10:34;5.85;;;2.08;;
45318;SDS011;31057;48.498;32.260;2023-04-06T07:14:38;4.40;;;2.72;;
45318;SDS011;31057;48.498;32.260;2023-04-06T07:16:40;2.30;;;1.65;;
45318;SDS011;31057;48.498;32.260;2023-04-06T07:18:42;6.03;;;1.60;;
45318;SDS011;31057;48.498;32.260;2023-04-06T07:20:44;2.72;;;1.25;;
45318;SDS011;31057;48.498;32.260;2023-04-06T07:22:46;2.30;;;1.30;;
45318;SDS011;31057;48.498;32.260;2023-04-06T07:24:49;2.72;;;1.50;;
45318;SDS011;31057;48.498;32.260;2023-04-06T07:28:53;1.88;;;1.25;;
45318;SDS011;31057;48.498;32.260;2023-04-06T07:30:55;3.28;;;1.25;;
45318;SDS011;31057;48.498;32.260;2023-04-06T07:32:57;2.00;;;1.20;;
45318;SDS011;31057;48.498;32.260;2023-04-06T07:35:01;2.42;;;1.77;;
45318;SDS011;31057;48.498;32.260;2023-04-06T07:37:03;6.25;;;1.92;;
45318;SDS011;31057;48.498;32.260;2023-04-06T07:39:05;3.13;;;1.30;;
45318;SDS011;31057;48.498;32.260;2023-04-06T07:41:08;4.45;;;1.55;;
45318;SDS011;31057;48.498;32.260;2023-04-06T07:43:10;4.55;;;1.33;;
45318;SDS011;31057;48.498;32.260;2023-04-06T07:45:12;1.70;;;1.20;;
45318;SDS011;31057;48.498;32.260;2023-04-06T07:47:14;1.52;;;1.10;;
45318;SDS011;31057;48.498;32.260;2023-04-06T07:49:16;3.30;;;1.75;;
45318;SDS011;31057;48.498;32.260;2023-04-06T07:51:18;2.65;;;1.00;;
45318;SDS011;31057;48.498;32.260;2023-04-06T07:53:20;4.57;;;1.30;;
45318;SDS011;31057;48.498;32.260;2023-04-06T07:55:22;1.45;;;1.30;;
45318;SDS011;31057;48.498;32.260;2023-04-06T07:57:24;4.28;;;1.20;;
45318;SDS011;31057;48.498;32.260;2023-04-06T07:59:26;1.80;;;1.23;;
45318;SDS011;31057;48.498;32.260;2023-04-06T08:03:33;4.97;;;1.20;;
45318;SDS011;31057;48.498;32.260;2023-04-06T08:05:36;5.05;;;1.60;;
45318;SDS011;31057;48.498;32.260;2023-04-06T08:07:37;4.63;;;1.40;;
45318;SDS011;31057;48.498;32.260;2023-04-06T08:11:41;2.72;;;1.55;;
45318;SDS011;31057;48.498;32.260;2023-04-06T08:13:45;3.08;;;1.40;;
45318;SDS011;31057;48.498;32.260;2023-04-06T08:15:47;5.13;;;1.45;;
45318;SDS011;31057;48.498;32.260;2023-04-06T08:19:51;5.30;;;1.58;;
45318;SDS011;31057;48.498;32.260;2023-04-06T08:21:53;6.75;;;2.00;;
45318;SDS011;31057;48.498;32.260;2023-04-06T08:23:55;5.35;;;2.13;;
45318;SDS011;31057;48.498;32.260;2023-04-06T08:25:57;5.32;;;1.88;;
45318;SDS011;31057;48.498;32.260;2023-04-06T08:27:59;3.65;;;1.10;;
45318;SDS011;31057;48.498;32.260;2023-04-06T08:32:03;3.10;;;1.00;;
45318;SDS011;31057;48.498;32.260;2023-04-06T08:34:06;4.20;;;1.40;;
45318;SDS011;31057;48.498;32.260;2023-04-06T08:36:12;2.75;;;1.30;;
45318;SDS011;31057;48.498;32.260;2023-04-06T08:38:15;1.33;;;0.80;;
45318;SDS011;31057;48.498;32.260;2023-04-06T08:40:17;1.70;;;0.80;;
45318;SDS011;31057;48.498;32.260;2023-04-06T08:44:22;6.32;;;1.25;;
45318;SDS011;31057;48.498;32.260;2023-04-06T08:46:24;3.28;;;1.30;;
45318;SDS011;31057;48.498;32.260;2023-04-06T08:48:31;1.90;;;1.23;;
45318;SDS011;31057;48.498;32.260;2023-04-06T08:50:35;6.13;;;1.33;;
45318;SDS011;31057;48.498;32.260;2023-04-06T08:52:37;2.83;;;1.35;;
45318;SDS011;31057;48.498;32.260;2023-04-06T08:54:40;4.55;;;1.75;;
45318;SDS011;31057;48.498;32.260;2023-04-06T08:56:42;7.00;;;1.75;;
45318;SDS011;31057;48.498;32.260;2023-04-06T08:58:44;6.78;;;1.60;;
45318;SDS011;31057;48.498;32.260;2023-04-06T09:00:46;1.33;;;1.10;;
45318;SDS011;31057;48.498;32.260;2023-04-06T09:06:54;2.65;;;0.98;;
45318;SDS011;31057;48.498;32.260;2023-04-06T09:08:56;1.55;;;1.20;;
45318;SDS011;31057;48.498;32.260;2023-04-06T09:11:00;1.60;;;1.20;;
45318;SDS011;31057;48.498;32.260;2023-04-06T09:13:05;4.82;;;1.13;;
45318;SDS011;31057;48.498;32.260;2023-04-06T09:15:17;5.50;;;1.30;;
45318;SDS011;31057;48.498;32.260;2023-04-06T09:17:32;2.80;;;1.20;;
45318;SDS011;31057;48.498;32.260;2023-04-06T09:19:44;3.45;;;1.42;;
45318;SDS011;31057;48.498;32.260;2023-04-06T09:21:47;1.50;;;1.25;;
45318;SDS011;31057;48.498;32.260;2023-04-06T09:23:57;1.88;;;1.58;;
45318;SDS011;31057;48.498;32.260;2023-04-06T09:26:08;3.63;;;1.50;;
45318;SDS011;31057;48.498;32.260;2023-04-06T09:28:17;5.60;;;1.85;;
45318;SDS011;31057;48.498;32.260;2023-04-06T09:30:19;5.25;;;2.60;;
45318;SDS011;31057;48.498;32.260;2023-04-06T09:32:21;3.83;;;1.80;;
45318;SDS011;31057;48.498;32.260;2023-04-06T09:34:23;5.18;;;2.45;;
45318;SDS011;31057;48.498;32.260;2023-04-06T09:38:33;4.30;;;2.13;;
45318;SDS011;31057;48.498;32.260;2023-04-06T09:40:35;2.33;;;1.65;;
45318;SDS011;31057;48.498;32.260;2023-04-06T09:42:37;4.78;;;1.70;;
45318;SDS011;31057;48.498;32.260;2023-04-06T09:44:41;6.88;;;1.50;;
45318;SDS011;31057;48.498;32.260;2023-04-06T09:46:44;4.45;;;2.17;;
45318;SDS011;31057;48.498;32.260;2023-04-06T09:49:04;3.63;;;1.60;;
45318;SDS011;31057;48.498;32.260;2023-04-06T09:51:07;7.97;;;2.45;;
45318;SDS011;31057;48.498;32.260;2023-04-06T09:53:12;4.13;;;1.67;;
45318;SDS011;31057;48.498;32.260;2023-04-06T09:55:48;6.20;;;1.65;;
45318;SDS011;31057;48.498;32.260;2023-04-06T10:00:06;3.63;;;1.63;;
45318;SDS011;31057;48.498;32.260;2023-04-06T10:04:34;7.47;;;1.98;;
45318;SDS011;31057;48.498;32.260;2023-04-06T10:06:44;6.88;;;2.97;;
45318;SDS011;31057;48.498;32.260;2023-04-06T10:08:49;4.45;;;2.45;;
45318;SDS011;31057;48.498;32.260;2023-04-06T10:10:53;3.50;;;2.35;;
45318;SDS011;31057;48.498;32.260;2023-04-06T10:12:56;7.22;;;3.10;;
45318;SDS011;31057;48.498;32.260;2023-04-06T10:14:59;5.45;;;3.05;;
45318;SDS011;31057;48.498;32.260;2023-04-06T10:19:46;9.02;;;5.28;;
45318;SDS011;31057;48.498;32.260;2023-04-06T10:21:30;8.05;;;3.63;;
45318;SDS011;31057;48.498;32.260;2023-04-06T10:23:54;10.15;;;3.10;;
45318;SDS011;31057;48.498;32.260;2023-04-06T10:26:00;9.18;;;3.58;;
45318;SDS011;31057;48.498;32.260;2023-04-06T10:28:07;4.53;;;2.08;;
45318;SDS011;31057;48.498;32.260;2023-04-06T10:30:10;9.77;;;4.57;;
45318;SDS011;31057;48.498;32.260;2023-04-06T10:34:14;6.78;;;2.55;;
45318;SDS011;31057;48.498;32.260;2023-04-06T10:36:23;8.25;;;2.38;;
45318;SDS011;31057;48.498;32.260;2023-04-06T10:38:34;4.13;;;2.30;;
45318;SDS011;31057;48.498;32.260;2023-04-06T10:40:42;7.95;;;2.03;;
45318;SDS011;31057;48.498;32.260;2023-04-06T10:42:50;5.35;;;2.00;;
45318;SDS011;31057;48.498;32.260;2023-04-06T10:44:56;3.50;;;1.50;;
45318;SDS011;31057;48.498;32.260;2023-04-06T10:49:11;5.30;;;1.95;;
45318;SDS011;31057;48.498;32.260;2023-04-06T10:51:14;7.88;;;3.00;;
45318;SDS011;31057;48.498;32.260;2023-04-06T10:53:26;7.10;;;2.40;;
45318;SDS011;31057;48.498;32.260;2023-04-06T10:55:29;4.50;;;2.72;;
45318;SDS011;31057;48.498;32.260;2023-04-06T10:57:32;4.78;;;2.10;;
45318;SDS011;31057;48.498;32.260;2023-04-06T10:59:34;5.50;;;2.30;;
45318;SDS011;31057;48.498;32.260;2023-04-06T11:03:45;9.55;;;2.50;;
45318;SDS011;31057;48.498;32.260;2023-04-06T11:05:49;8.63;;;2.92;;
45318;SDS011;31057;48.498;32.260;2023-04-06T11:07:53;7.72;;;2.80;;
45318;SDS011;31057;48.498;32.260;2023-04-06T11:09:56;8.02;;;2.92;;
45318;SDS011;31057;48.498;32.260;2023-04-06T11:12:25;8.15;;;2.53;;
45318;SDS011;31057;48.498;32.260;2023-04-06T11:14:28;10.25;;;2.45;;
45318;SDS011;31057;48.498;32.260;2023-04-06T11:16:31;11.70;;;4.88;;
45318;SDS011;31057;48.498;32.260;2023-04-06T11:18:34;10.63;;;3.00;;
45318;SDS011;31057;48.498;32.260;2023-04-06T11:20:37;5.38;;;2.35;;
45318;SDS011;31057;48.498;32.260;2023-04-06T11:22:48;8.75;;;2.40;;
45318;SDS011;31057;48.498;32.260;2023-04-06T11:26:57;5.40;;;2.60;;
45318;SDS011;31057;48.498;32.260;2023-04-06T11:28:59;5.40;;;2.17;;
45318;SDS011;31057;48.498;32.260;2023-04-06T11:31:01;6.93;;;2.22;;
45318;SDS011;31057;48.498;32.260;2023-04-06T11:33:03;3.22;;;2.20;;
45318;SDS011;31057;48.498;32.260;2023-04-06T11:37:10;5.65;;;2.25;;
45318;SDS011;31057;48.498;32.260;2023-04-06T11:39:17;4.35;;;1.90;;
45318;SDS011;31057;48.498;32.260;2023-04-06T11:41:23;5.65;;;2.70;;
45318;SDS011;31057;48.498;32.260;2023-04-06T11:43:28;8.25;;;3.30;;
45318;SDS011;31057;48.498;32.260;2023-04-06T11:45:42;5.55;;;2.55;;
45318;SDS011;31057;48.498;32.260;2023-04-06T11:47:44;7.80;;;2.88;;
45318;SDS011;31057;48.498;32.260;2023-04-06T11:49:47;5.78;;;2.47;;
45318;SDS011;31057;48.498;32.260;2023-04-06T11:53:51;6.20;;;2.60;;
45318;SDS011;31057;48.498;32.260;2023-04-06T11:57:55;6.13;;;2.67;;
45318;SDS011;31057;48.498;32.260;2023-04-06T11:59:57;5.75;;;3.70;;
45318;SDS011;31057;48.498;32.260;2023-04-06T12:01:58;9.32;;;2.63;;
45318;SDS011;31057;48.498;32.260;2023-04-06T12:06:04;3.92;;;2.20;;
45318;SDS011;31057;48.498;32.260;2023-04-06T12:08:06;7.15;;;2.38;;
45318;SDS011;31057;48.498;32.260;2023-04-06T12:10:08;6.43;;;2.20;;
45318;SDS011;31057;48.498;32.260;2023-04-06T12:12:10;4.93;;;2.50;;
45318;SDS011;31057;48.498;32.260;2023-04-06T12:14:12;10.20;;;2.65;;
45318;SDS011;31057;48.498;32.260;2023-04-06T12:18:16;6.07;;;2.30;;
45318;SDS011;31057;48.498;32.260;2023-04-06T12:20:18;5.40;;;2.45;;
45318;SDS011;31057;48.498;32.260;2023-04-06T12:22:26;7.20;;;2.40;;
45318;SDS011;31057;48.498;32.260;2023-04-06T12:24:28;6.10;;;2.42;;
45318;SDS011;31057;48.498;32.260;2023-04-06T12:26:30;4.57;;;1.92;;
45318;SDS011;31057;48.498;32.260;2023-04-06T12:28:33;5.65;;;2.10;;
45318;SDS011;31057;48.498;32.260;2023-04-06T12:30:35;3.90;;;2.05;;
45318;SDS011;31057;48.498;32.260;2023-04-06T12:34:39;4.57;;;2.67;;
45318;SDS011;31057;48.498;32.260;2023-04-06T12:38:43;7.30;;;2.72;;
45318;SDS011;31057;48.498;32.260;2023-04-06T12:40:46;5.55;;;2.78;;
45318;SDS011;31057;48.498;32.260;2023-04-06T12:42:51;4.50;;;2.25;;
45318;SDS011;31057;48.498;32.260;2023-04-06T12:44:53;5.28;;;3.60;;
45318;SDS011;31057;48.498;32.260;2023-04-06T12:46:55;7.80;;;2.63;;
45318;SDS011;31057;48.498;32.260;2023-04-06T12:48:58;5.70;;;2.75;;
45318;SDS011;31057;48.498;32.260;2023-04-06T12:51:01;11.82;;;3.28;;
45318;SDS011;31057;48.498;32.260;2023-04-06T12:53:04;6.85;;;2.85;;
45318;SDS011;31057;48.498;32.260;2023-04-06T12:55:06;5.65;;;2.30;;
45318;SDS011;31057;48.498;32.260;2023-04-06T12:57:08;10.23;;;2.80;;
45318;SDS011;31057;48.498;32.260;2023-04-06T12:59:11;7.35;;;3.15;;
45318;SDS011;31057;48.498;32.260;2023-04-06T13:01:13;6.05;;;2.30;;
45318;SDS011;31057;48.498;32.260;2023-04-06T13:05:17;12.35;;;2.88;;
45318;SDS011;31057;48.498;32.260;2023-04-06T13:07:20;8.32;;;3.25;;
45318;SDS011;31057;48.498;32.260;2023-04-06T13:09:22;4.93;;;2.47;;
45318;SDS011;31057;48.498;32.260;2023-04-06T13:11:25;8.52;;;3.22;;
45318;SDS011;31057;48.498;32.260;2023-04-06T13:13:29;8.02;;;3.63;;
45318;SDS011;31057;48.498;32.260;2023-04-06T13:15:31;13.38;;;4.55;;
45318;SDS011;31057;48.498;32.260;2023-04-06T13:17:34;10.23;;;3.65;;
45318;SDS011;31057;48.498;32.260;2023-04-06T13:19:36;10.00;;;3.40;;
45318;SDS011;31057;48.498;32.260;2023-04-06T13:21:38;6.13;;;3.38;;
45318;SDS011;31057;48.498;32.260;2023-04-06T13:23:40;6.38;;;4.25;;
45318;SDS011;31057;48.498;32.260;2023-04-06T13:27:44;6.43;;;3.85;;
45318;SDS011;31057;48.498;32.260;2023-04-06T13:29:48;8.90;;;3.00;;
45318;SDS011;31057;48.498;32.260;2023-04-06T13:33:52;4.82;;;3.42;;
45318;SDS011;31057;48.498;32.260;2023-04-06T13:35:54;7.38;;;4.25;;
45318;SDS011;31057;48.498;32.260;2023-04-06T13:39:58;6.38;;;4.97;;
45318;SDS011;31057;48.498;32.260;2023-04-06T13:42:01;9.98;;;5.30;;
45318;SDS011;31057;48.498;32.260;2023-04-06T13:44:04;9.23;;;5.80;;
45318;SDS011;31057;48.498;32.260;2023-04-06T13:46:06;11.60;;;5.82;;
45318;SDS011;31057;48.498;32.260;2023-04-06T13:48:09;6.75;;;5.55;;
45318;SDS011;31057;48.498;32.260;2023-04-06T13:50:11;10.07;;;6.32;;
45318;SDS011;31057;48.498;32.260;2023-04-06T13:52:13;8.23;;;6.60;;
45318;SDS011;31057;48.498;32.260;2023-04-06T13:54:15;9.32;;;6.57;;
45318;SDS011;31057;48.498;32.260;2023-04-06T13:56:17;8.77;;;6.75;;
45318;SDS011;31057;48.498;32.260;2023-04-06T14:00:21;14.75;;;7.75;;
45318;SDS011;31057;48.498;32.260;2023-04-06T14:02:24;14.93;;;10.13;;
45318;SDS011;31057;48.498;32.260;2023-04-06T14:04:29;16.15;;;10.57;;
45318;SDS011;31057;48.498;32.260;2023-04-06T14:06:31;14.43;;;10.30;;
45318;SDS011;31057;48.498;32.260;2023-04-06T14:08:34;12.50;;;10.13;;
45318;SDS011;31057;48.498;32.260;2023-04-06T14:10:39;23.67;;;11.55;;
45318;SDS011;31057;48.498;32.260;2023-04-06T14:12:42;20.48;;;10.63;;